sensor_id;sensor_type;location;lat;lon;timestamp;P1;durP1;ratioP1;P2;durP2;ratioP2
30862;SDS011;17573;55.922;37.540;2023-08-07T00:00:52;13.63;;;8.60;;
30862;SDS011;17573;55.922;37.540;2023-08-07T00:03:18;16.77;;;9.48;;
30862;SDS011;17573;55.922;37.540;2023-08-07T00:05:45;13.00;;;7.82;;
30862;SDS011;17573;55.922;37.540;2023-08-07T00:08:11;19.23;;;8.27;;
30862;SDS011;17573;55.922;37.540;2023-08-07T00:10:37;22.20;;;9.07;;
30862;SDS011;17573;55.922;37.540;2023-08-07T00:13:03;13.88;;;7.95;;
30862;SDS011;17573;55.922;37.540;2023-08-07T00:15:29;18.20;;;8.02;;
30862;SDS011;17573;55.922;37.540;2023-08-07T00:17:55;15.18;;;7.57;;
30862;SDS011;17573;55.922;37.540;2023-08-07T00:20:20;15.13;;;7.78;;
30862;SDS011;17573;55.922;37.540;2023-08-07T00:22:46;15.40;;;7.72;;
30862;SDS011;17573;55.922;37.540;2023-08-07T00:25:12;14.57;;;8.10;;
30862;SDS011;17573;55.922;37.540;2023-08-07T00:27:38;14.70;;;7.88;;
30862;SDS011;17573;55.922;37.540;2023-08-07T00:30:05;16.90;;;8.63;;
30862;SDS011;17573;55.922;37.540;2023-08-07T00:32:31;14.05;;;8.10;;
30862;SDS011;17573;55.922;37.540;2023-08-07T00:34:57;15.90;;;7.65;;
30862;SDS011;17573;55.922;37.540;2023-08-07T00:37:22;20.98;;;7.93;;
30862;SDS011;17573;55.922;37.540;2023-08-07T00:39:48;15.90;;;8.25;;
30862;SDS011;17573;55.922;37.540;2023-08-07T00:42:14;14.02;;;8.05;;
30862;SDS011;17573;55.922;37.540;2023-08-07T00:44:40;12.65;;;7.95;;
30862;SDS011;17573;55.922;37.540;2023-08-07T00:47:06;16.65;;;8.25;;
30862;SDS011;17573;55.922;37.540;2023-08-07T00:49:32;14.88;;;8.45;;
30862;SDS011;17573;55.922;37.540;2023-08-07T00:51:58;16.83;;;7.20;;
30862;SDS011;17573;55.922;37.540;2023-08-07T00:54:24;14.75;;;7.90;;
30862;SDS011;17573;55.922;37.540;2023-08-07T00:56:51;12.35;;;8.10;;
30862;SDS011;17573;55.922;37.540;2023-08-07T00:59:16;17.30;;;7.07;;
30862;SDS011;17573;55.922;37.540;2023-08-07T01:01:44;15.40;;;7.72;;
30862;SDS011;17573;55.922;37.540;2023-08-07T01:04:10;11.50;;;7.50;;
30862;SDS011;17573;55.922;37.540;2023-08-07T01:06:36;18.77;;;8.00;;
30862;SDS011;17573;55.922;37.540;2023-08-07T01:09:01;17.75;;;8.68;;
30862;SDS011;17573;55.922;37.540;2023-08-07T01:14:02;15.18;;;7.85;;
30862;SDS011;17573;55.922;37.540;2023-08-07T01:16:50;16.97;;;7.47;;
30862;SDS011;17573;55.922;37.540;2023-08-07T01:19:28;15.70;;;7.93;;
30862;SDS011;17573;55.922;37.540;2023-08-07T01:22:04;20.75;;;8.52;;
30862;SDS011;17573;55.922;37.540;2023-08-07T01:24:39;14.82;;;7.75;;
30862;SDS011;17573;55.922;37.540;2023-08-07T01:32:54;16.58;;;7.85;;
30862;SDS011;17573;55.922;37.540;2023-08-07T01:35:33;22.00;;;8.10;;
30862;SDS011;17573;55.922;37.540;2023-08-07T01:38:10;16.55;;;7.60;;
30862;SDS011;17573;55.922;37.540;2023-08-07T01:40:37;20.75;;;8.75;;
30862;SDS011;17573;55.922;37.540;2023-08-07T01:43:04;14.93;;;8.63;;
30862;SDS011;17573;55.922;37.540;2023-08-07T01:45:30;12.50;;;8.32;;
30862;SDS011;17573;55.922;37.540;2023-08-07T01:47:56;12.00;;;8.30;;
30862;SDS011;17573;55.922;37.540;2023-08-07T01:50:22;19.48;;;8.25;;
30862;SDS011;17573;55.922;37.540;2023-08-07T01:52:49;16.50;;;7.45;;
30862;SDS011;17573;55.922;37.540;2023-08-07T01:55:17;14.48;;;8.43;;
30862;SDS011;17573;55.922;37.540;2023-08-07T01:57:50;11.05;;;8.23;;
30862;SDS011;17573;55.922;37.540;2023-08-07T02:00:16;20.50;;;8.15;;
30862;SDS011;17573;55.922;37.540;2023-08-07T02:02:42;15.38;;;8.75;;
30862;SDS011;17573;55.922;37.540;2023-08-07T02:05:10;13.55;;;7.60;;
30862;SDS011;17573;55.922;37.540;2023-08-07T02:07:35;12.35;;;8.15;;
30862;SDS011;17573;55.922;37.540;2023-08-07T02:10:02;11.02;;;7.70;;
30862;SDS011;17573;55.922;37.540;2023-08-07T02:12:31;16.85;;;8.10;;
30862;SDS011;17573;55.922;37.540;2023-08-07T02:15:00;10.07;;;8.32;;
30862;SDS011;17573;55.922;37.540;2023-08-07T02:17:30;14.25;;;8.05;;
30862;SDS011;17573;55.922;37.540;2023-08-07T02:19:56;16.98;;;8.48;;
30862;SDS011;17573;55.922;37.540;2023-08-07T02:22:22;12.95;;;8.52;;
30862;SDS011;17573;55.922;37.540;2023-08-07T02:24:48;11.00;;;7.90;;
30862;SDS011;17573;55.922;37.540;2023-08-07T02:27:14;18.92;;;8.02;;
30862;SDS011;17573;55.922;37.540;2023-08-07T02:29:40;15.13;;;8.35;;
30862;SDS011;17573;55.922;37.540;2023-08-07T02:32:06;13.07;;;8.00;;
30862;SDS011;17573;55.922;37.540;2023-08-07T02:34:32;15.75;;;8.23;;
30862;SDS011;17573;55.922;37.540;2023-08-07T02:36:58;16.77;;;8.00;;
30862;SDS011;17573;55.922;37.540;2023-08-07T02:39:24;13.30;;;8.10;;
30862;SDS011;17573;55.922;37.540;2023-08-07T02:41:50;13.90;;;7.65;;
30862;SDS011;17573;55.922;37.540;2023-08-07T02:44:16;10.82;;;7.70;;
30862;SDS011;17573;55.922;37.540;2023-08-07T02:46:46;18.30;;;7.88;;
30862;SDS011;17573;55.922;37.540;2023-08-07T02:49:12;20.13;;;7.95;;
30862;SDS011;17573;55.922;37.540;2023-08-07T02:51:37;12.00;;;7.47;;
30862;SDS011;17573;55.922;37.540;2023-08-07T02:54:03;21.35;;;8.10;;
30862;SDS011;17573;55.922;37.540;2023-08-07T02:56:29;9.50;;;7.50;;
30862;SDS011;17573;55.922;37.540;2023-08-07T02:58:55;18.05;;;8.05;;
30862;SDS011;17573;55.922;37.540;2023-08-07T03:01:23;14.63;;;8.43;;
30862;SDS011;17573;55.922;37.540;2023-08-07T03:03:49;23.38;;;8.55;;
30862;SDS011;17573;55.922;37.540;2023-08-07T03:06:15;19.55;;;7.97;;
30862;SDS011;17573;55.922;37.540;2023-08-07T03:08:41;16.13;;;8.75;;
30862;SDS011;17573;55.922;37.540;2023-08-07T03:11:08;12.27;;;8.38;;
30862;SDS011;17573;55.922;37.540;2023-08-07T03:13:34;12.07;;;7.22;;
30862;SDS011;17573;55.922;37.540;2023-08-07T03:16:00;10.48;;;7.68;;
30862;SDS011;17573;55.922;37.540;2023-08-07T03:18:27;13.50;;;7.22;;
30862;SDS011;17573;55.922;37.540;2023-08-07T03:20:56;12.68;;;7.68;;
30862;SDS011;17573;55.922;37.540;2023-08-07T03:23:22;17.35;;;7.38;;
30862;SDS011;17573;55.922;37.540;2023-08-07T03:25:49;21.60;;;8.05;;
30862;SDS011;17573;55.922;37.540;2023-08-07T03:28:16;13.75;;;7.60;;
30862;SDS011;17573;55.922;37.540;2023-08-07T03:30:42;20.42;;;7.97;;
30862;SDS011;17573;55.922;37.540;2023-08-07T03:33:12;14.55;;;7.93;;
30862;SDS011;17573;55.922;37.540;2023-08-07T03:35:39;15.00;;;8.30;;
30862;SDS011;17573;55.922;37.540;2023-08-07T03:38:07;17.83;;;7.97;;
30862;SDS011;17573;55.922;37.540;2023-08-07T03:40:32;22.83;;;8.15;;
30862;SDS011;17573;55.922;37.540;2023-08-07T03:42:59;13.70;;;8.15;;
30862;SDS011;17573;55.922;37.540;2023-08-07T03:45:25;23.92;;;8.13;;
30862;SDS011;17573;55.922;37.540;2023-08-07T03:47:50;9.77;;;7.72;;
30862;SDS011;17573;55.922;37.540;2023-08-07T03:50:16;8.02;;;6.55;;
30862;SDS011;17573;55.922;37.540;2023-08-07T03:52:42;13.27;;;7.38;;
30862;SDS011;17573;55.922;37.540;2023-08-07T03:55:08;9.98;;;6.88;;
30862;SDS011;17573;55.922;37.540;2023-08-07T03:57:34;9.52;;;6.20;;
30862;SDS011;17573;55.922;37.540;2023-08-07T04:00:00;13.10;;;6.43;;
30862;SDS011;17573;55.922;37.540;2023-08-07T04:02:39;11.93;;;7.03;;
30862;SDS011;17573;55.922;37.540;2023-08-07T04:05:07;13.10;;;6.55;;
30862;SDS011;17573;55.922;37.540;2023-08-07T04:07:34;19.70;;;7.78;;
30862;SDS011;17573;55.922;37.540;2023-08-07T04:09:59;9.55;;;6.70;;
30862;SDS011;17573;55.922;37.540;2023-08-07T04:12:25;14.48;;;7.55;;
30862;SDS011;17573;55.922;37.540;2023-08-07T04:14:51;12.93;;;6.80;;
30862;SDS011;17573;55.922;37.540;2023-08-07T04:17:17;9.15;;;6.50;;
30862;SDS011;17573;55.922;37.540;2023-08-07T04:19:43;18.42;;;7.57;;
30862;SDS011;17573;55.922;37.540;2023-08-07T04:22:09;12.13;;;7.47;;
30862;SDS011;17573;55.922;37.540;2023-08-07T04:24:35;22.30;;;7.95;;
30862;SDS011;17573;55.922;37.540;2023-08-07T04:27:00;11.02;;;6.35;;
30862;SDS011;17573;55.922;37.540;2023-08-07T04:29:26;20.77;;;7.43;;
30862;SDS011;17573;55.922;37.540;2023-08-07T04:31:52;14.40;;;6.75;;
30862;SDS011;17573;55.922;37.540;2023-08-07T04:34:18;6.97;;;5.28;;
30862;SDS011;17573;55.922;37.540;2023-08-07T04:36:44;15.82;;;7.50;;
30862;SDS011;17573;55.922;37.540;2023-08-07T04:39:10;7.35;;;5.80;;
30862;SDS011;17573;55.922;37.540;2023-08-07T04:41:37;19.05;;;6.47;;
30862;SDS011;17573;55.922;37.540;2023-08-07T04:44:02;18.05;;;6.72;;
30862;SDS011;17573;55.922;37.540;2023-08-07T04:46:28;10.68;;;6.07;;
30862;SDS011;17573;55.922;37.540;2023-08-07T04:48:54;14.98;;;6.07;;
30862;SDS011;17573;55.922;37.540;2023-08-07T04:51:20;16.65;;;5.97;;
30862;SDS011;17573;55.922;37.540;2023-08-07T04:53:45;9.73;;;5.93;;
30862;SDS011;17573;55.922;37.540;2023-08-07T04:56:11;13.45;;;6.65;;
30862;SDS011;17573;55.922;37.540;2023-08-07T04:58:37;12.43;;;5.88;;
30862;SDS011;17573;55.922;37.540;2023-08-07T05:01:02;9.35;;;5.13;;
30862;SDS011;17573;55.922;37.540;2023-08-07T05:03:28;11.43;;;6.35;;
30862;SDS011;17573;55.922;37.540;2023-08-07T05:06:01;8.00;;;5.93;;
30862;SDS011;17573;55.922;37.540;2023-08-07T05:08:27;18.05;;;5.85;;
30862;SDS011;17573;55.922;37.540;2023-08-07T05:10:53;19.20;;;6.55;;
30862;SDS011;17573;55.922;37.540;2023-08-07T05:13:19;20.80;;;5.72;;
30862;SDS011;17573;55.922;37.540;2023-08-07T05:15:46;12.25;;;4.28;;
30862;SDS011;17573;55.922;37.540;2023-08-07T05:18:12;19.40;;;5.18;;
30862;SDS011;17573;55.922;37.540;2023-08-07T05:20:38;12.07;;;5.15;;
30862;SDS011;17573;55.922;37.540;2023-08-07T05:23:04;9.88;;;5.78;;
30862;SDS011;17573;55.922;37.540;2023-08-07T05:25:30;12.95;;;4.60;;
30862;SDS011;17573;55.922;37.540;2023-08-07T05:27:56;21.48;;;4.60;;
30862;SDS011;17573;55.922;37.540;2023-08-07T05:30:22;13.13;;;4.43;;
30862;SDS011;17573;55.922;37.540;2023-08-07T05:32:48;9.38;;;4.82;;
30862;SDS011;17573;55.922;37.540;2023-08-07T05:35:14;12.57;;;4.18;;
30862;SDS011;17573;55.922;37.540;2023-08-07T05:37:43;8.93;;;4.15;;
30862;SDS011;17573;55.922;37.540;2023-08-07T05:40:09;11.38;;;3.63;;
30862;SDS011;17573;55.922;37.540;2023-08-07T05:42:37;6.93;;;3.70;;
30862;SDS011;17573;55.922;37.540;2023-08-07T05:45:03;14.60;;;4.10;;
30862;SDS011;17573;55.922;37.540;2023-08-07T05:47:34;14.07;;;3.83;;
30862;SDS011;17573;55.922;37.540;2023-08-07T05:49:59;7.07;;;4.05;;
30862;SDS011;17573;55.922;37.540;2023-08-07T05:52:26;10.02;;;4.20;;
30862;SDS011;17573;55.922;37.540;2023-08-07T05:54:52;5.72;;;2.95;;
30862;SDS011;17573;55.922;37.540;2023-08-07T05:57:18;6.72;;;3.47;;
30862;SDS011;17573;55.922;37.540;2023-08-07T05:59:44;20.23;;;4.13;;
30862;SDS011;17573;55.922;37.540;2023-08-07T06:02:10;15.38;;;3.58;;
30862;SDS011;17573;55.922;37.540;2023-08-07T06:04:37;4.18;;;2.70;;
30862;SDS011;17573;55.922;37.540;2023-08-07T06:07:04;11.77;;;3.67;;
30862;SDS011;17573;55.922;37.540;2023-08-07T06:09:30;7.43;;;3.10;;
30862;SDS011;17573;55.922;37.540;2023-08-07T06:11:56;12.52;;;3.70;;
30862;SDS011;17573;55.922;37.540;2023-08-07T06:14:22;8.80;;;3.78;;
30862;SDS011;17573;55.922;37.540;2023-08-07T06:16:51;13.35;;;3.92;;
30862;SDS011;17573;55.922;37.540;2023-08-07T06:19:18;8.45;;;3.38;;
30862;SDS011;17573;55.922;37.540;2023-08-07T06:21:45;10.18;;;3.50;;
30862;SDS011;17573;55.922;37.540;2023-08-07T06:24:12;8.60;;;3.58;;
30862;SDS011;17573;55.922;37.540;2023-08-07T06:26:38;20.15;;;3.30;;
30862;SDS011;17573;55.922;37.540;2023-08-07T06:29:05;13.30;;;4.40;;
30862;SDS011;17573;55.922;37.540;2023-08-07T06:31:30;10.77;;;3.60;;
30862;SDS011;17573;55.922;37.540;2023-08-07T06:33:57;11.25;;;3.58;;
30862;SDS011;17573;55.922;37.540;2023-08-07T06:36:25;10.20;;;3.10;;
30862;SDS011;17573;55.922;37.540;2023-08-07T06:38:52;11.20;;;3.22;;
30862;SDS011;17573;55.922;37.540;2023-08-07T06:41:19;4.03;;;2.47;;
30862;SDS011;17573;55.922;37.540;2023-08-07T06:43:45;9.38;;;3.72;;
30862;SDS011;17573;55.922;37.540;2023-08-07T06:46:11;14.05;;;2.70;;
30862;SDS011;17573;55.922;37.540;2023-08-07T06:48:37;10.40;;;3.33;;
30862;SDS011;17573;55.922;37.540;2023-08-07T06:51:04;5.28;;;2.22;;
30862;SDS011;17573;55.922;37.540;2023-08-07T06:53:29;4.47;;;2.78;;
30862;SDS011;17573;55.922;37.540;2023-08-07T06:55:55;12.13;;;3.10;;
30862;SDS011;17573;55.922;37.540;2023-08-07T06:58:21;7.70;;;3.20;;
30862;SDS011;17573;55.922;37.540;2023-08-07T07:00:47;30.45;;;3.20;;
30862;SDS011;17573;55.922;37.540;2023-08-07T07:03:13;31.95;;;3.67;;
30862;SDS011;17573;55.922;37.540;2023-08-07T07:05:39;24.50;;;4.30;;
30862;SDS011;17573;55.922;37.540;2023-08-07T07:08:05;10.05;;;2.35;;
30862;SDS011;17573;55.922;37.540;2023-08-07T07:10:31;11.82;;;2.55;;
30862;SDS011;17573;55.922;37.540;2023-08-07T07:12:57;16.92;;;2.80;;
30862;SDS011;17573;55.922;37.540;2023-08-07T07:15:23;6.95;;;2.33;;
30862;SDS011;17573;55.922;37.540;2023-08-07T07:17:48;11.63;;;2.67;;
30862;SDS011;17573;55.922;37.540;2023-08-07T07:20:14;8.60;;;2.92;;
30862;SDS011;17573;55.922;37.540;2023-08-07T07:22:40;21.88;;;3.00;;
30862;SDS011;17573;55.922;37.540;2023-08-07T07:25:06;46.58;;;4.50;;
30862;SDS011;17573;55.922;37.540;2023-08-07T07:27:32;12.30;;;1.90;;
30862;SDS011;17573;55.922;37.540;2023-08-07T07:29:58;16.10;;;2.08;;
30862;SDS011;17573;55.922;37.540;2023-08-07T07:32:23;9.70;;;2.15;;
30862;SDS011;17573;55.922;37.540;2023-08-07T07:34:51;13.55;;;2.42;;
30862;SDS011;17573;55.922;37.540;2023-08-07T07:37:17;10.02;;;2.00;;
30862;SDS011;17573;55.922;37.540;2023-08-07T07:39:43;10.15;;;2.30;;
30862;SDS011;17573;55.922;37.540;2023-08-07T07:42:09;9.70;;;2.28;;
30862;SDS011;17573;55.922;37.540;2023-08-07T07:44:35;9.77;;;2.05;;
30862;SDS011;17573;55.922;37.540;2023-08-07T07:47:02;12.43;;;2.13;;
30862;SDS011;17573;55.922;37.540;2023-08-07T07:49:28;140.48;;;9.05;;
30862;SDS011;17573;55.922;37.540;2023-08-07T07:51:54;7.93;;;2.08;;
30862;SDS011;17573;55.922;37.540;2023-08-07T07:54:20;12.10;;;2.72;;
30862;SDS011;17573;55.922;37.540;2023-08-07T07:56:46;9.43;;;2.33;;
30862;SDS011;17573;55.922;37.540;2023-08-07T07:59:12;10.63;;;1.75;;
30862;SDS011;17573;55.922;37.540;2023-08-07T08:01:39;19.48;;;2.55;;
30862;SDS011;17573;55.922;37.540;2023-08-07T08:04:05;11.13;;;2.40;;
30862;SDS011;17573;55.922;37.540;2023-08-07T08:06:31;6.45;;;1.88;;
30862;SDS011;17573;55.922;37.540;2023-08-07T08:08:57;6.38;;;2.60;;
30862;SDS011;17573;55.922;37.540;2023-08-07T08:11:23;8.38;;;2.38;;
30862;SDS011;17573;55.922;37.540;2023-08-07T08:13:49;7.78;;;1.90;;
30862;SDS011;17573;55.922;37.540;2023-08-07T08:16:14;5.60;;;2.92;;
30862;SDS011;17573;55.922;37.540;2023-08-07T08:18:41;6.55;;;2.17;;
30862;SDS011;17573;55.922;37.540;2023-08-07T08:21:06;5.82;;;2.33;;
30862;SDS011;17573;55.922;37.540;2023-08-07T08:23:32;16.70;;;2.35;;
30862;SDS011;17573;55.922;37.540;2023-08-07T08:25:58;19.08;;;2.63;;
30862;SDS011;17573;55.922;37.540;2023-08-07T08:28:24;31.77;;;3.47;;
30862;SDS011;17573;55.922;37.540;2023-08-07T08:30:50;10.20;;;2.13;;
30862;SDS011;17573;55.922;37.540;2023-08-07T08:33:16;8.13;;;2.22;;
30862;SDS011;17573;55.922;37.540;2023-08-07T08:35:43;27.63;;;4.40;;
30862;SDS011;17573;55.922;37.540;2023-08-07T08:38:09;6.00;;;1.90;;
30862;SDS011;17573;55.922;37.540;2023-08-07T08:40:35;21.23;;;2.92;;
30862;SDS011;17573;55.922;37.540;2023-08-07T08:43:03;12.98;;;2.90;;
30862;SDS011;17573;55.922;37.540;2023-08-07T08:45:31;9.57;;;2.20;;
30862;SDS011;17573;55.922;37.540;2023-08-07T08:48:04;13.32;;;2.42;;
30862;SDS011;17573;55.922;37.540;2023-08-07T08:50:31;5.68;;;1.92;;
30862;SDS011;17573;55.922;37.540;2023-08-07T08:52:58;13.35;;;2.60;;
30862;SDS011;17573;55.922;37.540;2023-08-07T08:55:25;10.40;;;1.90;;
30862;SDS011;17573;55.922;37.540;2023-08-07T08:57:52;15.48;;;3.58;;
30862;SDS011;17573;55.922;37.540;2023-08-07T09:00:19;24.20;;;3.45;;
30862;SDS011;17573;55.922;37.540;2023-08-07T09:02:49;7.93;;;2.15;;
30862;SDS011;17573;55.922;37.540;2023-08-07T09:05:17;6.80;;;1.92;;
30862;SDS011;17573;55.922;37.540;2023-08-07T09:07:46;15.05;;;1.98;;
30862;SDS011;17573;55.922;37.540;2023-08-07T09:10:13;4.47;;;2.17;;
30862;SDS011;17573;55.922;37.540;2023-08-07T09:12:40;4.78;;;2.38;;
30862;SDS011;17573;55.922;37.540;2023-08-07T09:15:07;9.55;;;2.47;;
30862;SDS011;17573;55.922;37.540;2023-08-07T09:17:35;8.68;;;2.25;;
30862;SDS011;17573;55.922;37.540;2023-08-07T09:20:06;2.55;;;1.52;;
30862;SDS011;17573;55.922;37.540;2023-08-07T09:22:40;15.30;;;2.30;;
30862;SDS011;17573;55.922;37.540;2023-08-07T09:25:06;19.45;;;2.83;;
30862;SDS011;17573;55.922;37.540;2023-08-07T09:27:36;9.40;;;2.20;;
30862;SDS011;17573;55.922;37.540;2023-08-07T09:30:03;8.80;;;2.20;;
30862;SDS011;17573;55.922;37.540;2023-08-07T09:32:31;5.57;;;1.92;;
30862;SDS011;17573;55.922;37.540;2023-08-07T09:34:57;8.05;;;1.85;;
30862;SDS011;17573;55.922;37.540;2023-08-07T09:37:23;6.00;;;1.58;;
30862;SDS011;17573;55.922;37.540;2023-08-07T09:39:49;14.35;;;2.20;;
30862;SDS011;17573;55.922;37.540;2023-08-07T09:42:15;4.45;;;2.08;;
30862;SDS011;17573;55.922;37.540;2023-08-07T09:44:41;8.27;;;2.42;;
30862;SDS011;17573;55.922;37.540;2023-08-07T09:47:17;6.70;;;2.22;;
30862;SDS011;17573;55.922;37.540;2023-08-07T09:49:45;7.03;;;2.65;;
30862;SDS011;17573;55.922;37.540;2023-08-07T09:52:12;6.07;;;1.85;;
30862;SDS011;17573;55.922;37.540;2023-08-07T09:54:40;31.52;;;3.22;;
30862;SDS011;17573;55.922;37.540;2023-08-07T09:57:06;4.88;;;1.50;;
30862;SDS011;17573;55.922;37.540;2023-08-07T09:59:33;5.18;;;2.08;;
30862;SDS011;17573;55.922;37.540;2023-08-07T10:01:59;5.93;;;2.10;;
30862;SDS011;17573;55.922;37.540;2023-08-07T10:04:27;11.40;;;2.65;;
30862;SDS011;17573;55.922;37.540;2023-08-07T10:06:54;5.65;;;1.70;;
30862;SDS011;17573;55.922;37.540;2023-08-07T10:09:21;9.65;;;1.88;;
30862;SDS011;17573;55.922;37.540;2023-08-07T10:11:47;14.48;;;2.55;;
30862;SDS011;17573;55.922;37.540;2023-08-07T10:14:14;6.53;;;1.90;;
30862;SDS011;17573;55.922;37.540;2023-08-07T10:16:41;9.05;;;1.90;;
30862;SDS011;17573;55.922;37.540;2023-08-07T10:19:08;3.47;;;1.60;;
30862;SDS011;17573;55.922;37.540;2023-08-07T10:21:40;12.57;;;2.63;;
30862;SDS011;17573;55.922;37.540;2023-08-07T10:24:07;8.23;;;2.08;;
30862;SDS011;17573;55.922;37.540;2023-08-07T10:26:34;7.53;;;2.28;;
30862;SDS011;17573;55.922;37.540;2023-08-07T10:29:02;11.57;;;2.33;;
30862;SDS011;17573;55.922;37.540;2023-08-07T10:31:28;9.40;;;2.35;;
30862;SDS011;17573;55.922;37.540;2023-08-07T10:33:54;17.00;;;2.38;;
30862;SDS011;17573;55.922;37.540;2023-08-07T10:36:20;11.43;;;2.40;;
30862;SDS011;17573;55.922;37.540;2023-08-07T10:38:49;11.93;;;2.38;;
30862;SDS011;17573;55.922;37.540;2023-08-07T10:41:17;14.60;;;2.50;;
30862;SDS011;17573;55.922;37.540;2023-08-07T10:43:44;9.00;;;2.10;;
30862;SDS011;17573;55.922;37.540;2023-08-07T10:46:19;6.22;;;1.67;;
30862;SDS011;17573;55.922;37.540;2023-08-07T10:48:53;11.35;;;2.10;;
30862;SDS011;17573;55.922;37.540;2023-08-07T10:51:23;3.92;;;1.67;;
30862;SDS011;17573;55.922;37.540;2023-08-07T10:53:54;21.40;;;2.47;;
30862;SDS011;17573;55.922;37.540;2023-08-07T10:56:31;14.00;;;2.13;;
30862;SDS011;17573;55.922;37.540;2023-08-07T10:59:06;10.40;;;2.42;;
30862;SDS011;17573;55.922;37.540;2023-08-07T11:01:43;11.73;;;2.35;;
30862;SDS011;17573;55.922;37.540;2023-08-07T11:04:13;7.43;;;2.40;;
30862;SDS011;17573;55.922;37.540;2023-08-07T11:06:40;3.90;;;1.85;;
30862;SDS011;17573;55.922;37.540;2023-08-07T11:09:08;7.15;;;1.83;;
30862;SDS011;17573;55.922;37.540;2023-08-07T11:11:36;11.45;;;2.00;;
30862;SDS011;17573;55.922;37.540;2023-08-07T11:14:08;12.13;;;3.55;;
30862;SDS011;17573;55.922;37.540;2023-08-07T11:16:35;14.90;;;2.00;;
30862;SDS011;17573;55.922;37.540;2023-08-07T11:19:01;9.48;;;1.98;;
30862;SDS011;17573;55.922;37.540;2023-08-07T11:21:28;12.43;;;1.65;;
30862;SDS011;17573;55.922;37.540;2023-08-07T11:23:56;5.32;;;1.75;;
30862;SDS011;17573;55.922;37.540;2023-08-07T11:26:22;6.25;;;1.77;;
30862;SDS011;17573;55.922;37.540;2023-08-07T11:28:49;6.60;;;1.88;;
30862;SDS011;17573;55.922;37.540;2023-08-07T11:31:17;7.10;;;1.90;;
30862;SDS011;17573;55.922;37.540;2023-08-07T11:33:43;6.05;;;1.75;;
30862;SDS011;17573;55.922;37.540;2023-08-07T11:36:12;12.60;;;2.05;;
30862;SDS011;17573;55.922;37.540;2023-08-07T11:38:42;5.28;;;1.65;;
30862;SDS011;17573;55.922;37.540;2023-08-07T11:41:09;5.47;;;2.00;;
30862;SDS011;17573;55.922;37.540;2023-08-07T11:43:35;8.93;;;1.85;;
30862;SDS011;17573;55.922;37.540;2023-08-07T11:46:06;13.88;;;2.45;;
30862;SDS011;17573;55.922;37.540;2023-08-07T11:48:35;10.07;;;1.70;;
30862;SDS011;17573;55.922;37.540;2023-08-07T11:51:02;8.38;;;2.28;;
30862;SDS011;17573;55.922;37.540;2023-08-07T11:53:29;5.28;;;1.42;;
30862;SDS011;17573;55.922;37.540;2023-08-07T11:56:01;6.07;;;1.75;;
30862;SDS011;17573;55.922;37.540;2023-08-07T11:58:35;11.77;;;2.15;;
30862;SDS011;17573;55.922;37.540;2023-08-07T12:01:06;4.70;;;2.05;;
30862;SDS011;17573;55.922;37.540;2023-08-07T12:03:36;20.13;;;2.40;;
30862;SDS011;17573;55.922;37.540;2023-08-07T12:06:06;11.35;;;1.77;;
30862;SDS011;17573;55.922;37.540;2023-08-07T12:11:00;15.13;;;2.58;;
30862;SDS011;17573;55.922;37.540;2023-08-07T12:13:27;12.88;;;2.17;;
30862;SDS011;17573;55.922;37.540;2023-08-07T12:15:54;16.27;;;2.45;;
30862;SDS011;17573;55.922;37.540;2023-08-07T12:18:22;5.85;;;1.88;;
30862;SDS011;17573;55.922;37.540;2023-08-07T12:20:52;10.23;;;1.65;;
30862;SDS011;17573;55.922;37.540;2023-08-07T12:23:23;5.55;;;1.80;;
30862;SDS011;17573;55.922;37.540;2023-08-07T12:25:49;15.75;;;2.05;;
30862;SDS011;17573;55.922;37.540;2023-08-07T12:28:15;5.47;;;1.75;;
30862;SDS011;17573;55.922;37.540;2023-08-07T12:30:44;10.57;;;2.67;;
30862;SDS011;17573;55.922;37.540;2023-08-07T12:33:11;14.85;;;2.42;;
30862;SDS011;17573;55.922;37.540;2023-08-07T12:35:37;5.65;;;1.73;;
30862;SDS011;17573;55.922;37.540;2023-08-07T12:38:02;9.20;;;2.15;;
30862;SDS011;17573;55.922;37.540;2023-08-07T12:40:29;6.43;;;1.90;;
30862;SDS011;17573;55.922;37.540;2023-08-07T12:42:55;8.43;;;1.80;;
30862;SDS011;17573;55.922;37.540;2023-08-07T12:45:22;16.25;;;2.60;;
30862;SDS011;17573;55.922;37.540;2023-08-07T12:47:48;5.88;;;1.85;;
30862;SDS011;17573;55.922;37.540;2023-08-07T12:50:14;16.92;;;4.15;;
30862;SDS011;17573;55.922;37.540;2023-08-07T12:52:40;18.83;;;3.05;;
30862;SDS011;17573;55.922;37.540;2023-08-07T12:55:06;12.02;;;2.20;;
30862;SDS011;17573;55.922;37.540;2023-08-07T12:57:33;14.40;;;2.20;;
30862;SDS011;17573;55.922;37.540;2023-08-07T12:59:58;8.02;;;1.73;;
30862;SDS011;17573;55.922;37.540;2023-08-07T13:02:24;14.32;;;2.08;;
30862;SDS011;17573;55.922;37.540;2023-08-07T13:04:50;5.85;;;2.22;;
30862;SDS011;17573;55.922;37.540;2023-08-07T13:07:17;27.63;;;3.80;;
30862;SDS011;17573;55.922;37.540;2023-08-07T13:09:43;14.43;;;2.33;;
30862;SDS011;17573;55.922;37.540;2023-08-07T13:12:09;17.98;;;2.33;;
30862;SDS011;17573;55.922;37.540;2023-08-07T13:14:35;13.35;;;2.25;;
30862;SDS011;17573;55.922;37.540;2023-08-07T13:17:00;11.07;;;2.83;;
30862;SDS011;17573;55.922;37.540;2023-08-07T13:19:26;8.50;;;1.70;;
30862;SDS011;17573;55.922;37.540;2023-08-07T13:21:52;15.57;;;2.83;;
30862;SDS011;17573;55.922;37.540;2023-08-07T13:24:18;7.63;;;2.63;;
30862;SDS011;17573;55.922;37.540;2023-08-07T13:26:44;4.90;;;1.60;;
30862;SDS011;17573;55.922;37.540;2023-08-07T13:29:10;11.20;;;2.38;;
30862;SDS011;17573;55.922;37.540;2023-08-07T13:31:37;8.40;;;2.58;;
30862;SDS011;17573;55.922;37.540;2023-08-07T13:34:03;21.15;;;3.03;;
30862;SDS011;17573;55.922;37.540;2023-08-07T13:36:35;8.65;;;2.08;;
30862;SDS011;17573;55.922;37.540;2023-08-07T13:39:02;10.13;;;2.10;;
30862;SDS011;17573;55.922;37.540;2023-08-07T13:41:28;17.52;;;3.10;;
30862;SDS011;17573;55.922;37.540;2023-08-07T13:43:54;7.97;;;3.03;;
30862;SDS011;17573;55.922;37.540;2023-08-07T13:46:19;13.60;;;2.47;;
30862;SDS011;17573;55.922;37.540;2023-08-07T13:48:45;20.08;;;2.75;;
30862;SDS011;17573;55.922;37.540;2023-08-07T13:51:11;17.02;;;3.20;;
30862;SDS011;17573;55.922;37.540;2023-08-07T13:53:37;8.00;;;2.08;;
30862;SDS011;17573;55.922;37.540;2023-08-07T13:56:03;18.45;;;2.83;;
30862;SDS011;17573;55.922;37.540;2023-08-07T13:58:29;20.00;;;3.05;;
30862;SDS011;17573;55.922;37.540;2023-08-07T14:00:55;15.02;;;2.83;;
30862;SDS011;17573;55.922;37.540;2023-08-07T14:03:22;15.10;;;2.78;;
30862;SDS011;17573;55.922;37.540;2023-08-07T14:05:47;8.23;;;2.22;;
30862;SDS011;17573;55.922;37.540;2023-08-07T14:08:14;6.03;;;1.83;;
30862;SDS011;17573;55.922;37.540;2023-08-07T14:10:39;13.25;;;2.63;;
30862;SDS011;17573;55.922;37.540;2023-08-07T14:13:06;7.65;;;1.75;;
30862;SDS011;17573;55.922;37.540;2023-08-07T14:15:32;9.13;;;3.03;;
30862;SDS011;17573;55.922;37.540;2023-08-07T14:17:58;6.18;;;2.53;;
30862;SDS011;17573;55.922;37.540;2023-08-07T14:20:24;8.18;;;2.65;;
30862;SDS011;17573;55.922;37.540;2023-08-07T14:22:50;10.27;;;2.72;;
30862;SDS011;17573;55.922;37.540;2023-08-07T14:25:16;6.70;;;2.03;;
30862;SDS011;17573;55.922;37.540;2023-08-07T14:27:42;5.88;;;2.10;;
30862;SDS011;17573;55.922;37.540;2023-08-07T14:30:08;9.63;;;2.15;;
30862;SDS011;17573;55.922;37.540;2023-08-07T14:32:34;6.40;;;2.60;;
30862;SDS011;17573;55.922;37.540;2023-08-07T14:35:00;10.35;;;2.40;;